createdAt,value
2018-10-18T00:01:59.631Z,99.90
2018-10-18T00:04:28.010Z,99.90
2018-10-18T00:06:56.401Z,99.90
2018-10-18T00:09:24.871Z,99.90
2018-10-18T00:11:53.497Z,99.90
2018-10-18T00:14:21.983Z,99.90
2018-10-18T00:16:50.415Z,99.90
2018-10-18T00:19:18.847Z,99.90
2018-10-18T00:21:47.260Z,99.90
2018-10-18T00:24:15.801Z,99.90
2018-10-18T00:26:44.166Z,99.90
2018-10-18T00:29:12.618Z,99.90
2018-10-18T00:31:41.062Z,99.90
2018-10-18T00:34:09.473Z,99.90
2018-10-18T00:36:37.897Z,99.90
2018-10-18T00:39:09.546Z,99.90
2018-10-18T00:41:37.956Z,99.90
2018-10-18T00:44:07.154Z,99.90
2018-10-18T00:46:35.565Z,99.90
2018-10-18T00:49:04.082Z,99.90
2018-10-18T00:51:32.465Z,99.90
2018-10-18T00:54:00.876Z,99.90
2018-10-18T00:56:29.273Z,99.90
2018-10-18T00:58:57.765Z,99.90
2018-10-18T01:01:26.393Z,99.90
2018-10-18T01:03:54.791Z,99.90
2018-10-18T01:06:23.266Z,99.90
2018-10-18T01:08:51.752Z,99.90
2018-10-18T01:11:20.641Z,99.90
2018-10-18T01:13:49.101Z,99.90
2018-10-18T01:16:17.524Z,99.90
2018-10-18T01:18:45.915Z,99.90
2018-10-18T01:21:14.346Z,99.90
2018-10-18T01:23:42.826Z,99.90
2018-10-18T01:26:11.909Z,99.90
2018-10-18T01:28:40.256Z,99.90
2018-10-18T01:31:08.701Z,99.90
2018-10-18T01:33:37.147Z,99.90
2018-10-18T01:36:05.795Z,99.90
2018-10-18T01:38:34.250Z,99.90
2018-10-18T01:41:02.797Z,99.90
2018-10-18T01:43:31.171Z,99.90
2018-10-18T01:45:59.577Z,99.90
2018-10-18T01:48:28.084Z,99.90
2018-10-18T01:50:56.556Z,99.90
2018-10-18T01:53:25.014Z,99.90
2018-10-18T01:55:53.473Z,99.90
2018-10-18T01:58:21.834Z,99.90
2018-10-18T02:00:50.285Z,99.90
2018-10-18T02:03:18.717Z,99.90
2018-10-18T02:05:47.222Z,99.90
2018-10-18T02:08:15.803Z,99.90
2018-10-18T02:10:44.185Z,99.90
2018-10-18T02:13:12.596Z,99.90
2018-10-18T02:15:41.026Z,99.90
2018-10-18T02:18:09.614Z,99.90
2018-10-18T02:20:37.979Z,99.90
2018-10-18T02:23:06.485Z,99.90
2018-10-18T02:25:34.890Z,99.90
2018-10-18T02:28:03.624Z,99.90
2018-10-18T02:30:32.052Z,99.90
2018-10-18T02:33:00.490Z,99.90
2018-10-18T02:35:28.958Z,99.90
2018-10-18T02:37:57.439Z,99.90
2018-10-18T02:40:25.878Z,99.90
2018-10-18T02:42:54.285Z,99.90
2018-10-18T02:45:22.709Z,99.90
2018-10-18T02:47:51.164Z,99.90
2018-10-18T02:50:19.720Z,99.90
2018-10-18T02:52:48.185Z,99.90
2018-10-18T02:55:16.610Z,99.90
2018-10-18T02:57:45.057Z,99.90
2018-10-18T03:00:13.586Z,99.90
2018-10-18T03:02:42.130Z,99.90
2018-10-18T03:05:10.545Z,99.90
2018-10-18T03:07:38.981Z,99.90
2018-10-18T03:10:07.923Z,99.90
2018-10-18T03:12:36.606Z,99.90
2018-10-18T03:15:06.162Z,99.90
2018-10-18T03:17:35.470Z,99.90
2018-10-18T03:20:03.943Z,99.90
2018-10-18T03:22:32.353Z,99.90
2018-10-18T03:25:00.810Z,99.90
2018-10-18T03:27:29.278Z,99.90
2018-10-18T03:29:57.712Z,99.90
2018-10-18T03:32:26.128Z,99.90
2018-10-18T03:34:54.551Z,99.90
2018-10-18T03:37:23.004Z,99.90
2018-10-18T03:39:51.973Z,99.90
2018-10-18T03:42:20.453Z,99.90
2018-10-18T03:44:48.912Z,99.90
2018-10-18T03:47:17.355Z,99.90
2018-10-18T03:49:45.782Z,99.90
2018-10-18T03:52:14.278Z,99.90
2018-10-18T03:54:42.698Z,99.90
2018-10-18T03:57:11.071Z,99.90
2018-10-18T03:59:39.669Z,99.90
2018-10-18T04:02:08.182Z,99.90
2018-10-18T04:04:36.581Z,99.90
2018-10-18T04:07:05.163Z,99.90
2018-10-18T04:09:33.740Z,99.90
2018-10-18T04:12:02.314Z,99.90
2018-10-18T04:14:30.779Z,99.90
2018-10-18T04:16:59.183Z,99.90
2018-10-18T04:19:39.382Z,99.90
2018-10-18T04:22:08.016Z,99.90
2018-10-18T04:24:36.408Z,99.90
2018-10-18T04:27:04.878Z,99.90
2018-10-18T04:29:33.296Z,99.90
2018-10-18T04:32:02.297Z,99.90
2018-10-18T04:34:30.727Z,99.90
2018-10-18T04:36:59.193Z,99.90
2018-10-18T04:39:27.608Z,99.90
2018-10-18T04:41:56.065Z,99.90
2018-10-18T04:44:24.471Z,99.90
2018-10-18T04:46:52.864Z,99.90
2018-10-18T04:49:21.255Z,99.90
2018-10-18T04:51:50.380Z,99.90
2018-10-18T04:54:18.859Z,99.90
2018-10-18T04:56:47.351Z,99.90
2018-10-18T04:59:15.726Z,99.90
2018-10-18T05:01:44.218Z,99.90
2018-10-18T05:04:12.599Z,99.90
2018-10-18T05:06:41.029Z,99.90
2018-10-18T05:09:09.438Z,99.90
2018-10-18T05:11:37.843Z,99.90
2018-10-18T05:14:06.383Z,99.90
2018-10-18T05:16:34.871Z,99.90
2018-10-18T05:19:03.388Z,99.90
2018-10-18T05:21:31.821Z,99.90
2018-10-18T05:24:00.281Z,99.90
2018-10-18T05:26:28.725Z,99.90
2018-10-18T05:28:57.209Z,99.90
2018-10-18T05:31:25.664Z,99.90
2018-10-18T05:33:54.135Z,99.90
2018-10-18T05:36:22.562Z,99.90
2018-10-18T05:38:50.987Z,99.90
2018-10-18T05:41:19.572Z,99.90
2018-10-18T05:43:47.986Z,99.90
2018-10-18T05:46:16.408Z,99.90
2018-10-18T05:48:44.820Z,99.90
2018-10-18T05:51:13.242Z,99.90
2018-10-18T05:53:41.785Z,99.90
2018-10-18T05:56:10.151Z,99.90
2018-10-18T05:58:38.594Z,99.90
2018-10-18T06:01:07.425Z,99.90
2018-10-18T06:03:36.596Z,99.90
2018-10-18T06:06:05.361Z,99.90
2018-10-18T06:08:33.814Z,99.90
2018-10-18T06:11:13.371Z,99.90
2018-10-18T06:13:41.925Z,99.90
2018-10-18T06:16:10.375Z,99.90
2018-10-18T06:18:39.051Z,99.90
2018-10-18T06:21:07.528Z,99.90
2018-10-18T06:23:36.268Z,99.90
2018-10-18T06:26:04.839Z,99.90
2018-10-18T06:28:34.372Z,99.90
2018-10-18T06:31:02.837Z,99.90
2018-10-18T06:33:31.226Z,99.90
2018-10-18T06:35:59.861Z,99.90
2018-10-18T06:38:28.434Z,99.90
2018-10-18T06:40:56.946Z,99.90
2018-10-18T06:43:25.326Z,99.90
2018-10-18T06:45:53.728Z,99.90
2018-10-18T06:48:22.251Z,99.90
2018-10-18T06:50:50.646Z,99.90
2018-10-18T06:53:19.112Z,99.90
2018-10-18T06:55:47.577Z,99.90
2018-10-18T06:58:15.970Z,99.90
2018-10-18T07:00:51.105Z,99.90
2018-10-18T07:03:19.516Z,99.90
2018-10-18T07:05:47.956Z,99.90
2018-10-18T07:08:16.368Z,99.90
2018-10-18T07:10:44.817Z,99.90
2018-10-18T07:13:13.352Z,99.90
2018-10-18T07:15:41.921Z,99.90
2018-10-18T07:18:10.604Z,99.90
2018-10-18T07:20:38.884Z,99.90
2018-10-18T07:23:07.351Z,99.90
2018-10-18T07:25:35.762Z,99.90
2018-10-18T07:28:04.246Z,99.90
2018-10-18T07:30:32.641Z,99.90
2018-10-18T07:33:01.057Z,99.90
2018-10-18T07:35:29.556Z,99.90
2018-10-18T07:37:57.972Z,99.90
2018-10-18T07:40:26.357Z,99.90
2018-10-18T07:42:54.797Z,99.90
2018-10-18T07:45:23.304Z,99.90
2018-10-18T07:47:51.753Z,99.90
2018-10-18T07:50:20.300Z,99.90
2018-10-18T07:52:48.775Z,99.90
2018-10-18T07:55:17.236Z,99.90
2018-10-18T07:57:45.692Z,99.90
2018-10-18T08:00:15.375Z,99.90
2018-10-18T08:02:44.551Z,99.90
2018-10-18T08:05:13.480Z,99.90
2018-10-18T08:07:41.985Z,99.90
2018-10-18T08:10:16.322Z,99.90
2018-10-18T08:12:44.748Z,99.90
2018-10-18T08:15:14.388Z,99.90
2018-10-18T08:17:43.394Z,99.90
2018-10-18T08:20:12.434Z,99.90
2018-10-18T08:22:41.500Z,99.90
2018-10-18T08:25:10.015Z,99.90
2018-10-18T08:27:38.410Z,99.90
2018-10-18T08:30:09.349Z,99.90
2018-10-18T08:32:38.016Z,99.90
2018-10-18T08:35:07.267Z,99.90
2018-10-18T08:37:35.891Z,99.90
2018-10-18T08:40:04.505Z,99.90
2018-10-18T08:42:32.897Z,99.90
2018-10-18T08:45:01.324Z,99.90
2018-10-18T08:47:29.792Z,99.90
2018-10-18T08:49:58.338Z,99.90
2018-10-18T08:52:26.683Z,99.90
2018-10-18T08:54:55.188Z,99.90
2018-10-18T08:57:23.564Z,99.90
2018-10-18T08:59:52.018Z,99.90
2018-10-18T09:02:20.449Z,99.90
2018-10-18T09:04:48.868Z,99.90
2018-10-18T09:07:17.490Z,99.90
2018-10-18T09:09:45.768Z,99.90
2018-10-18T09:12:14.190Z,99.90
2018-10-18T09:14:42.616Z,99.90
2018-10-18T09:17:11.121Z,99.90
2018-10-18T09:19:40.122Z,99.90
2018-10-18T09:22:08.638Z,99.90
2018-10-18T09:24:37.076Z,99.90
2018-10-18T09:27:05.599Z,99.90
2018-10-18T09:29:34.081Z,99.90
2018-10-18T09:32:02.541Z,99.90
2018-10-18T09:34:31.026Z,99.90
2018-10-18T09:36:59.432Z,99.90
2018-10-18T09:39:27.969Z,99.90
2018-10-18T09:41:56.484Z,99.90
2018-10-18T09:44:24.987Z,99.90
2018-10-18T09:46:53.335Z,99.90
2018-10-18T09:49:21.880Z,99.90
2018-10-18T09:51:50.297Z,99.90
2018-10-18T09:54:18.757Z,99.90
2018-10-18T09:56:47.215Z,99.90
2018-10-18T09:59:15.629Z,99.90
2018-10-18T10:01:53.140Z,99.90
2018-10-18T10:04:21.626Z,99.90
2018-10-18T10:06:50.030Z,99.90
2018-10-18T10:09:19.167Z,99.90
2018-10-18T10:11:47.728Z,99.90
2018-10-18T10:14:16.146Z,99.90
2018-10-18T10:16:44.614Z,99.90
2018-10-18T10:19:13.265Z,99.90
2018-10-18T10:21:41.765Z,99.90
2018-10-18T10:24:10.199Z,99.90
2018-10-18T10:26:38.625Z,99.90
2018-10-18T10:29:07.148Z,99.90
2018-10-18T10:31:35.580Z,99.90
2018-10-18T10:34:04.008Z,99.90
2018-10-18T10:36:32.442Z,99.90
2018-10-18T10:39:00.958Z,99.90
2018-10-18T10:41:29.377Z,99.90
2018-10-18T10:43:57.928Z,99.90
2018-10-18T10:46:26.341Z,99.90
2018-10-18T10:48:54.811Z,99.90
2018-10-18T10:51:23.317Z,99.90
2018-10-18T10:53:51.820Z,99.90
2018-10-18T10:56:20.291Z,99.90
2018-10-18T10:58:48.731Z,99.90
2018-10-18T11:01:20.178Z,99.90
2018-10-18T11:03:49.415Z,99.90
2018-10-18T11:06:18.037Z,99.90
2018-10-18T11:08:46.518Z,99.90
2018-10-18T11:11:15.857Z,99.90
2018-10-18T11:13:44.577Z,99.90
2018-10-18T11:16:13.049Z,99.90
2018-10-18T11:18:41.881Z,99.90
2018-10-18T11:21:11.905Z,99.90
2018-10-18T11:23:40.290Z,99.90
2018-10-18T11:26:08.749Z,99.90
2018-10-18T11:28:37.135Z,99.90
2018-10-18T11:31:05.779Z,99.90
2018-10-18T11:33:34.211Z,99.90
2018-10-18T11:36:02.748Z,99.90
2018-10-18T11:38:31.212Z,99.90
2018-10-18T11:40:59.687Z,99.90
2018-10-18T11:43:28.233Z,99.90
2018-10-18T11:45:56.658Z,99.90
2018-10-18T11:48:25.088Z,99.90
2018-10-18T11:50:53.576Z,99.90
2018-10-18T11:53:22.621Z,99.90
2018-10-18T11:55:51.079Z,99.90
2018-10-18T11:58:19.496Z,99.90
2018-10-18T12:00:48.076Z,99.90
2018-10-18T12:03:16.546Z,99.90
2018-10-18T12:05:45.134Z,99.90
2018-10-18T12:08:13.656Z,99.90
2018-10-18T12:10:42.055Z,99.90
2018-10-18T12:13:10.457Z,99.90
2018-10-18T12:15:38.890Z,99.90
2018-10-18T12:18:07.352Z,99.90
2018-10-18T12:20:35.865Z,99.90
2018-10-18T12:23:04.515Z,99.90
2018-10-18T12:25:32.931Z,99.90
2018-10-18T12:28:01.408Z,99.90
2018-10-18T12:30:29.829Z,99.90
2018-10-18T12:32:58.319Z,99.90
2018-10-18T12:35:26.723Z,99.90
2018-10-18T12:37:55.230Z,99.90
2018-10-18T12:40:23.703Z,99.90
2018-10-18T12:42:52.411Z,99.90
2018-10-18T12:45:20.905Z,99.90
2018-10-18T12:47:49.347Z,99.90
2018-10-18T12:50:17.908Z,99.90
2018-10-18T12:52:46.247Z,99.90
2018-10-18T12:55:14.702Z,99.90
2018-10-18T12:57:43.230Z,99.90
2018-10-18T13:00:11.973Z,99.90
2018-10-18T13:02:40.466Z,99.90
2018-10-18T13:05:09.939Z,99.90
2018-10-18T13:07:38.469Z,99.90
2018-10-18T13:10:08.721Z,99.90
2018-10-18T13:12:37.361Z,99.90
2018-10-18T13:15:06.903Z,99.80
2018-10-18T13:17:35.385Z,99.50
2018-10-18T13:20:04.607Z,99.00
2018-10-18T13:22:32.994Z,99.20
2018-10-18T13:25:01.405Z,99.20
2018-10-18T13:27:30.020Z,98.90
2018-10-18T13:29:58.476Z,98.70
2018-10-18T13:32:26.912Z,98.80
2018-10-18T13:34:55.333Z,98.10
2018-10-18T13:37:24.461Z,98.30
2018-10-18T13:39:52.866Z,98.00
2018-10-18T13:42:21.328Z,98.20
2018-10-18T13:44:49.814Z,98.00
2018-10-18T13:47:18.287Z,98.00
2018-10-18T13:49:46.749Z,98.00
2018-10-18T13:52:15.182Z,98.20
2018-10-18T13:54:43.617Z,98.00
2018-10-18T13:57:12.059Z,98.60
2018-10-18T13:59:51.633Z,98.00
2018-10-18T14:02:20.162Z,98.00
2018-10-18T14:04:48.583Z,98.00
2018-10-18T14:07:17.067Z,98.00
2018-10-18T14:09:45.630Z,97.60
2018-10-18T14:12:14.123Z,97.60
2018-10-18T14:14:42.585Z,97.20
2018-10-18T14:17:11.104Z,97.60
2018-10-18T14:19:39.421Z,97.40
2018-10-18T14:22:07.833Z,97.60
2018-10-18T14:24:36.245Z,97.30
2018-10-18T14:27:04.800Z,97.50
2018-10-18T14:29:33.231Z,97.40
2018-10-18T14:32:01.778Z,97.60
2018-10-18T14:34:30.228Z,97.50
2018-10-18T14:36:58.685Z,97.60
2018-10-18T14:39:27.087Z,97.40
2018-10-18T14:41:55.601Z,96.90
2018-10-18T14:44:25.037Z,97.20
2018-10-18T14:46:53.315Z,97.10
2018-10-18T14:49:21.711Z,97.30
2018-10-18T14:51:50.151Z,97.60
2018-10-18T14:54:18.570Z,97.40
2018-10-18T14:56:47.002Z,97.20
2018-10-18T14:59:15.465Z,97.50
2018-10-18T15:01:43.934Z,97.40
2018-10-18T15:04:12.412Z,97.30
2018-10-18T15:06:40.818Z,96.70
2018-10-18T15:09:09.503Z,96.60
2018-10-18T15:11:38.377Z,96.40
2018-10-18T15:14:06.950Z,96.50
2018-10-18T15:16:35.346Z,96.80
2018-10-18T15:19:04.357Z,96.80
2018-10-18T15:21:32.790Z,97.00
2018-10-18T15:24:01.202Z,96.80
2018-10-18T15:26:29.656Z,96.50
2018-10-18T15:28:59.142Z,96.70
2018-10-18T15:31:27.507Z,96.90
2018-10-18T15:33:55.895Z,97.30
2018-10-18T15:36:24.401Z,97.50
2018-10-18T15:38:52.995Z,97.90
2018-10-18T15:41:21.272Z,98.00
2018-10-18T15:43:49.701Z,97.40
2018-10-18T15:46:18.289Z,97.30
2018-10-18T15:48:46.746Z,97.50
2018-10-18T15:51:15.329Z,97.40
2018-10-18T15:53:43.657Z,97.40
2018-10-18T15:56:12.191Z,97.80
2018-10-18T15:58:40.794Z,97.40
2018-10-18T16:01:09.242Z,97.10
2018-10-18T16:03:37.707Z,97.10
2018-10-18T16:06:06.346Z,97.10
2018-10-18T16:08:34.842Z,97.30
2018-10-18T16:11:03.378Z,97.70
2018-10-18T16:13:31.927Z,97.50
2018-10-18T16:16:00.327Z,97.60
2018-10-18T16:18:28.847Z,97.60
2018-10-18T16:21:04.137Z,97.80
2018-10-18T16:23:32.869Z,98.00
2018-10-18T16:26:01.451Z,98.00
2018-10-18T16:28:29.805Z,97.80
2018-10-18T16:30:59.089Z,98.10
2018-10-18T16:33:27.521Z,98.00
2018-10-18T16:35:55.934Z,97.90
2018-10-18T16:38:24.413Z,98.00
2018-10-18T16:40:52.847Z,98.00
2018-10-18T16:43:21.302Z,98.00
2018-10-18T16:45:49.730Z,97.90
2018-10-18T16:48:18.377Z,97.90
2018-10-18T16:50:46.722Z,98.00
2018-10-18T16:53:15.122Z,98.30
2018-10-18T16:55:43.552Z,98.40
2018-10-18T16:58:12.138Z,98.70
2018-10-18T17:00:40.556Z,98.90
2018-10-18T17:03:09.036Z,98.80
2018-10-18T17:05:38.861Z,98.80
2018-10-18T17:08:07.433Z,98.90
2018-10-18T17:10:36.602Z,99.00
2018-10-18T17:13:05.504Z,99.10
2018-10-18T17:15:33.940Z,99.60
2018-10-18T17:18:02.637Z,99.30
2018-10-18T17:20:31.056Z,99.40
2018-10-18T17:23:00.167Z,99.70
2018-10-18T17:25:28.689Z,99.60
2018-10-18T17:27:57.157Z,99.90
2018-10-18T17:30:25.720Z,99.90
2018-10-18T17:32:54.279Z,99.90
2018-10-18T17:35:22.846Z,99.90
2018-10-18T17:37:51.395Z,99.80
2018-10-18T17:40:19.976Z,99.70
2018-10-18T17:42:48.346Z,99.90
2018-10-18T17:45:16.843Z,99.70
2018-10-18T17:47:45.298Z,99.80
2018-10-18T17:50:13.847Z,99.60
2018-10-18T17:52:42.283Z,99.70
2018-10-18T17:55:10.697Z,99.80
2018-10-18T17:57:39.353Z,99.70
2018-10-18T18:00:10.943Z,99.30
2018-10-18T18:02:39.749Z,99.50
2018-10-18T18:05:08.728Z,99.60
2018-10-18T18:07:37.249Z,99.50
2018-10-18T18:10:07.799Z,99.60
2018-10-18T18:12:36.399Z,99.70
2018-10-18T18:15:05.770Z,99.80
2018-10-18T18:17:34.225Z,99.80
2018-10-18T18:20:02.690Z,99.80
2018-10-18T18:22:31.142Z,99.80
2018-10-18T18:24:59.618Z,99.10
2018-10-18T18:27:28.086Z,98.80
2018-10-18T18:29:56.539Z,98.50
2018-10-18T18:32:25.021Z,98.10
2018-10-18T18:34:53.443Z,97.60
2018-10-18T18:37:21.878Z,97.20
2018-10-18T18:39:50.426Z,97.20
2018-10-18T18:42:18.847Z,96.90
2018-10-18T18:44:47.309Z,96.80
2018-10-18T18:47:15.874Z,96.90
2018-10-18T18:49:44.925Z,96.70
2018-10-18T18:52:13.329Z,96.60
2018-10-18T18:54:41.760Z,96.50
2018-10-18T18:57:10.242Z,96.20
2018-10-18T18:59:38.661Z,96.00
2018-10-18T19:02:07.151Z,96.00
2018-10-18T19:04:35.655Z,96.00
2018-10-18T19:07:04.889Z,95.80
2018-10-18T19:09:33.445Z,95.90
2018-10-18T19:12:01.871Z,95.70
2018-10-18T19:14:30.329Z,95.80
2018-10-18T19:16:58.720Z,95.80
2018-10-18T19:19:27.145Z,95.80
2018-10-18T19:21:55.659Z,95.70
2018-10-18T19:24:24.089Z,96.00
2018-10-18T19:26:52.518Z,95.70
2018-10-18T19:29:20.962Z,95.70
2018-10-18T19:31:49.374Z,95.50
2018-10-18T19:34:17.834Z,95.30
2018-10-18T19:36:46.308Z,95.40
2018-10-18T19:39:14.755Z,95.00
2018-10-18T19:41:43.574Z,94.90
2018-10-18T19:44:12.628Z,94.80
2018-10-18T19:46:42.339Z,94.80
2018-10-18T19:49:10.662Z,94.80
2018-10-18T19:51:39.658Z,94.20
2018-10-18T19:54:12.630Z,94.00
2018-10-18T19:56:41.111Z,93.80
2018-10-18T19:59:09.706Z,93.90
2018-10-18T20:01:38.257Z,93.70
2018-10-18T20:04:07.263Z,93.50
2018-10-18T20:06:35.777Z,93.60
2018-10-18T20:09:06.142Z,93.40
2018-10-18T20:11:34.614Z,93.70
2018-10-18T20:14:03.119Z,93.50
2018-10-18T20:16:31.518Z,93.60
2018-10-18T20:19:00.028Z,93.70
2018-10-18T20:21:28.453Z,93.60
2018-10-18T20:23:56.936Z,93.70
2018-10-18T20:26:25.465Z,93.60
2018-10-18T20:28:53.747Z,93.80
2018-10-18T20:31:22.196Z,93.80
2018-10-18T20:33:50.680Z,93.90
2018-10-18T20:36:19.102Z,94.00
2018-10-18T20:38:47.501Z,94.10
2018-10-18T20:41:16.022Z,93.90
2018-10-18T20:43:44.427Z,94.10
2018-10-18T20:46:12.895Z,94.20
2018-10-18T20:48:41.298Z,94.30
2018-10-18T20:51:09.764Z,94.30
2018-10-18T20:53:38.147Z,94.30
2018-10-18T20:56:06.879Z,94.40
2018-10-18T20:58:35.339Z,94.60
2018-10-18T21:01:04.484Z,94.50
2018-10-18T21:03:32.876Z,94.80
2018-10-18T21:06:01.319Z,94.90
2018-10-18T21:08:29.725Z,94.90
2018-10-18T21:10:58.181Z,94.80
2018-10-18T21:13:26.572Z,95.10
2018-10-18T21:15:54.994Z,94.90
2018-10-18T21:18:23.369Z,95.00
2018-10-18T21:20:51.871Z,95.00
2018-10-18T21:23:20.398Z,95.20
2018-10-18T21:25:48.842Z,95.20
2018-10-18T21:28:17.265Z,95.30
2018-10-18T21:30:45.705Z,95.40
2018-10-18T21:33:14.891Z,95.50
2018-10-18T21:35:43.298Z,95.50
2018-10-18T21:38:11.689Z,95.70
2018-10-18T21:40:40.065Z,95.70
2018-10-18T21:43:08.480Z,95.80
2018-10-18T21:45:36.886Z,96.00
2018-10-18T21:48:05.911Z,96.10
2018-10-18T21:50:34.336Z,96.10
2018-10-18T21:53:02.764Z,96.00
2018-10-18T21:55:31.321Z,96.10
2018-10-18T21:57:59.766Z,96.10
2018-10-18T22:00:28.977Z,96.20
2018-10-18T22:02:57.461Z,96.00
2018-10-18T22:05:25.814Z,96.10
2018-10-18T22:07:54.206Z,96.10
2018-10-18T22:10:22.614Z,95.80
2018-10-18T22:12:51.037Z,96.10
2018-10-18T22:15:19.457Z,95.90
2018-10-18T22:17:47.838Z,96.00
2018-10-18T22:20:16.252Z,96.00
2018-10-18T22:22:44.666Z,95.90
2018-10-18T22:25:13.076Z,95.80
2018-10-18T22:27:41.523Z,95.80
2018-10-18T22:30:10.025Z,95.70
2018-10-18T22:32:38.610Z,95.70
2018-10-18T22:35:07.136Z,95.70
2018-10-18T22:37:35.547Z,95.70
2018-10-18T22:40:04.063Z,95.70
2018-10-18T22:42:32.452Z,95.70
2018-10-18T22:45:00.908Z,95.40
2018-10-18T22:47:29.406Z,95.50
2018-10-18T22:49:57.796Z,95.50
2018-10-18T22:52:26.189Z,95.50
2018-10-18T22:54:54.620Z,95.70
2018-10-18T22:57:23.028Z,95.70
2018-10-18T22:59:51.397Z,95.70
2018-10-18T23:02:19.834Z,95.70
2018-10-18T23:04:48.234Z,95.70
2018-10-18T23:07:16.687Z,95.70
2018-10-18T23:09:45.135Z,96.00
2018-10-18T23:12:13.598Z,95.90
2018-10-18T23:14:42.776Z,95.90
2018-10-18T23:17:11.370Z,96.10
2018-10-18T23:19:39.725Z,96.20
2018-10-18T23:22:08.673Z,96.20
2018-10-18T23:24:39.180Z,96.10
2018-10-18T23:27:08.420Z,96.20
2018-10-18T23:29:38.038Z,96.20
2018-10-18T23:32:06.601Z,96.40
2018-10-18T23:34:35.002Z,96.50
2018-10-18T23:37:03.378Z,96.50
2018-10-18T23:39:32.541Z,96.40
2018-10-18T23:42:07.289Z,96.60
2018-10-18T23:44:35.913Z,96.60
2018-10-18T23:47:04.767Z,96.60
2018-10-18T23:49:33.179Z,96.50
2018-10-18T23:52:01.616Z,96.70
2018-10-18T23:54:30.029Z,96.90
2018-10-18T23:56:58.570Z,97.00
2018-10-18T23:59:26.929Z,97.00
